sensor_id;sensor_type;location;lat;lon;timestamp;pressure;altitude;pressure_sealevel;temperature;humidity
11712;BME280;5912;51.034;6.984;2023-05-21T00:01:08;56288.22;;;-142.13;67.84
11712;BME280;5912;51.034;6.984;2023-05-21T00:03:33;56316.25;;;-142.13;67.73
11712;BME280;5912;51.034;6.984;2023-05-21T00:06:00;56312.25;;;-142.13;67.72
11712;BME280;5912;51.034;6.984;2023-05-21T00:08:25;56320.28;;;-142.13;67.74
11712;BME280;5912;51.034;6.984;2023-05-21T00:10:51;56330.28;;;-142.13;68.00
11712;BME280;5912;51.034;6.984;2023-05-21T00:13:16;56310.25;;;-142.13;67.80
11712;BME280;5912;51.034;6.984;2023-05-21T00:15:41;56290.22;;;-142.13;68.07
11712;BME280;5912;51.034;6.984;2023-05-21T00:18:07;56324.28;;;-142.13;68.24
11712;BME280;5912;51.034;6.984;2023-05-21T00:20:32;56312.25;;;-142.13;68.16
11712;BME280;5912;51.034;6.984;2023-05-21T00:22:58;56314.25;;;-142.13;68.49
11712;BME280;5912;51.034;6.984;2023-05-21T00:25:23;56330.28;;;-142.13;68.41
11712;BME280;5912;51.034;6.984;2023-05-21T00:27:49;56318.25;;;-142.13;68.42
11712;BME280;5912;51.034;6.984;2023-05-21T00:30:14;56332.28;;;-142.13;68.59
11712;BME280;5912;51.034;6.984;2023-05-21T00:32:40;56322.28;;;-142.13;68.68
11712;BME280;5912;51.034;6.984;2023-05-21T00:35:06;56320.28;;;-142.13;68.67
11712;BME280;5912;51.034;6.984;2023-05-21T00:37:32;56322.28;;;-142.13;68.66
11712;BME280;5912;51.034;6.984;2023-05-21T00:39:59;56324.28;;;-142.13;68.69
11712;BME280;5912;51.034;6.984;2023-05-21T00:42:25;56320.28;;;-142.13;68.84
11712;BME280;5912;51.034;6.984;2023-05-21T00:44:51;56316.25;;;-142.13;69.12
11712;BME280;5912;51.034;6.984;2023-05-21T00:47:18;56328.28;;;-142.13;68.73
11712;BME280;5912;51.034;6.984;2023-05-21T00:49:46;56336.28;;;-142.13;68.82
11712;BME280;5912;51.034;6.984;2023-05-21T00:52:13;56324.28;;;-142.13;68.87
11712;BME280;5912;51.034;6.984;2023-05-21T00:54:39;56308.25;;;-142.13;68.96
11712;BME280;5912;51.034;6.984;2023-05-21T00:57:05;56330.28;;;-142.13;69.20
11712;BME280;5912;51.034;6.984;2023-05-21T00:59:31;56314.25;;;-142.13;69.11
11712;BME280;5912;51.034;6.984;2023-05-21T01:01:58;56304.25;;;-142.13;69.15
11712;BME280;5912;51.034;6.984;2023-05-21T01:04:28;56332.28;;;-142.13;69.54
11712;BME280;5912;51.034;6.984;2023-05-21T01:06:54;56312.25;;;-142.13;69.58
11712;BME280;5912;51.034;6.984;2023-05-21T01:09:20;56312.25;;;-142.13;69.55
11712;BME280;5912;51.034;6.984;2023-05-21T01:11:48;56342.31;;;-142.13;69.29
11712;BME280;5912;51.034;6.984;2023-05-21T01:14:15;56302.25;;;-142.13;69.48
11712;BME280;5912;51.034;6.984;2023-05-21T01:16:43;56328.28;;;-142.13;69.40
11712;BME280;5912;51.034;6.984;2023-05-21T01:19:14;56328.28;;;-142.13;69.65
11712;BME280;5912;51.034;6.984;2023-05-21T01:21:44;56316.25;;;-142.13;69.51
11712;BME280;5912;51.034;6.984;2023-05-21T01:24:10;56336.28;;;-142.13;69.74
11712;BME280;5912;51.034;6.984;2023-05-21T01:26:35;56324.28;;;-142.13;69.75
11712;BME280;5912;51.034;6.984;2023-05-21T01:29:06;56308.25;;;-142.13;69.29
11712;BME280;5912;51.034;6.984;2023-05-21T01:34:25;56332.28;;;-142.13;69.66
11712;BME280;5912;51.034;6.984;2023-05-21T01:37:01;56320.28;;;-142.13;69.71
11712;BME280;5912;51.034;6.984;2023-05-21T01:39:32;56320.28;;;-142.13;69.54
11712;BME280;5912;51.034;6.984;2023-05-21T01:42:02;56314.25;;;-142.13;69.85
11712;BME280;5912;51.034;6.984;2023-05-21T01:44:31;56318.25;;;-142.13;69.74
11712;BME280;5912;51.034;6.984;2023-05-21T01:46:59;56320.28;;;-142.13;69.74
11712;BME280;5912;51.034;6.984;2023-05-21T01:49:24;56328.28;;;-142.13;69.81
11712;BME280;5912;51.034;6.984;2023-05-21T01:51:50;56326.28;;;-142.13;70.12
11712;BME280;5912;51.034;6.984;2023-05-21T01:54:15;56340.31;;;-142.13;69.77
11712;BME280;5912;51.034;6.984;2023-05-21T01:56:41;56324.28;;;-142.13;69.39
11712;BME280;5912;51.034;6.984;2023-05-21T01:59:06;56326.28;;;-142.13;69.88
11712;BME280;5912;51.034;6.984;2023-05-21T02:01:32;56342.31;;;-142.13;70.03
11712;BME280;5912;51.034;6.984;2023-05-21T02:03:58;56344.31;;;-142.13;70.15
11712;BME280;5912;51.034;6.984;2023-05-21T02:06:23;56302.25;;;-142.13;70.19
11712;BME280;5912;51.034;6.984;2023-05-21T02:08:48;56560.66;;;-142.13;69.91
11712;BME280;5912;51.034;6.984;2023-05-21T02:11:14;56332.28;;;-142.13;70.33
11712;BME280;5912;51.034;6.984;2023-05-21T02:13:39;56348.31;;;-142.13;70.30
11712;BME280;5912;51.034;6.984;2023-05-21T02:16:06;56330.28;;;-142.13;70.51
11712;BME280;5912;51.034;6.984;2023-05-21T02:18:34;56324.28;;;-142.13;70.34
11712;BME280;5912;51.034;6.984;2023-05-21T02:21:00;56320.28;;;-142.13;70.21
11712;BME280;5912;51.034;6.984;2023-05-21T02:23:25;56334.28;;;-142.13;70.35
11712;BME280;5912;51.034;6.984;2023-05-21T02:25:51;56336.28;;;-142.13;70.55
11712;BME280;5912;51.034;6.984;2023-05-21T02:28:16;56350.31;;;-142.13;70.47
11712;BME280;5912;51.034;6.984;2023-05-21T02:30:41;56322.28;;;-142.13;70.63
11712;BME280;5912;51.034;6.984;2023-05-21T02:33:07;56342.31;;;-142.13;70.36
11712;BME280;5912;51.034;6.984;2023-05-21T02:35:33;56324.28;;;-142.13;70.30
11712;BME280;5912;51.034;6.984;2023-05-21T02:37:58;56318.25;;;-142.13;70.40
11712;BME280;5912;51.034;6.984;2023-05-21T02:40:26;56344.31;;;-142.13;70.38
11712;BME280;5912;51.034;6.984;2023-05-21T02:42:52;56364.34;;;-142.13;70.43
11712;BME280;5912;51.034;6.984;2023-05-21T02:45:17;56326.28;;;-142.13;70.49
11712;BME280;5912;51.034;6.984;2023-05-21T02:47:42;56322.28;;;-142.13;70.63
11712;BME280;5912;51.034;6.984;2023-05-21T02:50:08;56330.28;;;-142.13;70.55
11712;BME280;5912;51.034;6.984;2023-05-21T02:52:33;56332.28;;;-142.13;70.63
11712;BME280;5912;51.034;6.984;2023-05-21T02:54:59;56314.25;;;-142.13;70.80
11712;BME280;5912;51.034;6.984;2023-05-21T02:57:25;56322.28;;;-142.13;70.74
11712;BME280;5912;51.034;6.984;2023-05-21T02:59:50;56356.31;;;-142.13;70.56
11712;BME280;5912;51.034;6.984;2023-05-21T03:02:16;56354.31;;;-142.13;70.65
11712;BME280;5912;51.034;6.984;2023-05-21T03:04:41;56332.28;;;-142.13;70.63
11712;BME280;5912;51.034;6.984;2023-05-21T03:07:11;56340.31;;;-142.13;70.63
11712;BME280;5912;51.034;6.984;2023-05-21T03:09:39;56300.25;;;-142.13;70.81
11712;BME280;5912;51.034;6.984;2023-05-21T03:12:05;56356.31;;;-142.13;70.90
11712;BME280;5912;51.034;6.984;2023-05-21T03:14:31;56338.31;;;-142.13;70.86
11712;BME280;5912;51.034;6.984;2023-05-21T03:16:56;56342.31;;;-142.13;70.66
11712;BME280;5912;51.034;6.984;2023-05-21T03:19:22;56358.34;;;-142.13;70.83
11712;BME280;5912;51.034;6.984;2023-05-21T03:21:48;56352.31;;;-142.13;70.69
11712;BME280;5912;51.034;6.984;2023-05-21T03:24:14;56328.28;;;-142.13;70.52
11712;BME280;5912;51.034;6.984;2023-05-21T03:26:40;56350.31;;;-142.13;70.90
11712;BME280;5912;51.034;6.984;2023-05-21T03:29:05;56350.31;;;-142.13;70.93
11712;BME280;5912;51.034;6.984;2023-05-21T03:31:30;56342.31;;;-142.13;70.83
11712;BME280;5912;51.034;6.984;2023-05-21T03:33:55;56330.28;;;-142.13;70.85
11712;BME280;5912;51.034;6.984;2023-05-21T03:36:21;56318.25;;;-142.13;70.69
11712;BME280;5912;51.034;6.984;2023-05-21T03:38:46;56332.28;;;-142.13;70.76
11712;BME280;5912;51.034;6.984;2023-05-21T03:41:11;56310.25;;;-142.13;70.83
11712;BME280;5912;51.034;6.984;2023-05-21T03:43:37;56386.38;;;-142.13;70.60
11712;BME280;5912;51.034;6.984;2023-05-21T03:46:02;56330.28;;;-142.13;70.84
11712;BME280;5912;51.034;6.984;2023-05-21T03:48:27;56320.28;;;-142.13;70.97
11712;BME280;5912;51.034;6.984;2023-05-21T03:50:53;56348.31;;;-142.13;70.74
11712;BME280;5912;51.034;6.984;2023-05-21T03:53:18;56356.31;;;-142.13;70.96
11712;BME280;5912;51.034;6.984;2023-05-21T03:55:43;56352.31;;;-142.13;70.98
11712;BME280;5912;51.034;6.984;2023-05-21T03:58:09;56336.28;;;-142.13;70.62
11712;BME280;5912;51.034;6.984;2023-05-21T04:00:35;56320.28;;;-142.13;70.74
11712;BME280;5912;51.034;6.984;2023-05-21T04:03:02;56296.22;;;-142.13;70.83
11712;BME280;5912;51.034;6.984;2023-05-21T04:05:27;56332.28;;;-142.13;70.80
11712;BME280;5912;51.034;6.984;2023-05-21T04:07:52;56334.28;;;-142.13;70.77
11712;BME280;5912;51.034;6.984;2023-05-21T04:10:18;56332.28;;;-142.13;70.77
11712;BME280;5912;51.034;6.984;2023-05-21T04:12:43;56340.31;;;-142.13;70.74
11712;BME280;5912;51.034;6.984;2023-05-21T04:15:09;56342.31;;;-142.13;70.70
11712;BME280;5912;51.034;6.984;2023-05-21T04:17:34;56314.25;;;-142.13;70.57
11712;BME280;5912;51.034;6.984;2023-05-21T04:19:59;56338.31;;;-142.13;70.65
11712;BME280;5912;51.034;6.984;2023-05-21T04:22:25;56336.28;;;-142.13;70.23
11712;BME280;5912;51.034;6.984;2023-05-21T04:24:52;56334.28;;;-142.13;70.51
11712;BME280;5912;51.034;6.984;2023-05-21T04:27:20;56342.31;;;-142.13;70.11
11712;BME280;5912;51.034;6.984;2023-05-21T04:29:48;56286.22;;;-142.13;70.16
11712;BME280;5912;51.034;6.984;2023-05-21T04:32:14;56336.28;;;-142.13;69.96
11712;BME280;5912;51.034;6.984;2023-05-21T04:34:42;56324.28;;;-142.13;69.90
11712;BME280;5912;51.034;6.984;2023-05-21T04:37:07;56332.28;;;-142.13;70.03
11712;BME280;5912;51.034;6.984;2023-05-21T04:39:33;56336.28;;;-142.13;70.06
11712;BME280;5912;51.034;6.984;2023-05-21T04:41:58;56324.28;;;-142.13;69.69
11712;BME280;5912;51.034;6.984;2023-05-21T04:44:24;56322.28;;;-142.13;69.41
11712;BME280;5912;51.034;6.984;2023-05-21T04:46:49;56332.28;;;-142.13;69.54
11712;BME280;5912;51.034;6.984;2023-05-21T04:49:14;56312.25;;;-142.13;69.35
11712;BME280;5912;51.034;6.984;2023-05-21T04:51:40;56284.22;;;-142.13;69.36
11712;BME280;5912;51.034;6.984;2023-05-21T04:54:06;56324.28;;;-142.13;69.34
11712;BME280;5912;51.034;6.984;2023-05-21T04:56:31;56318.25;;;-142.13;68.98
11712;BME280;5912;51.034;6.984;2023-05-21T04:58:57;56318.25;;;-142.13;68.84
11712;BME280;5912;51.034;6.984;2023-05-21T05:01:23;56286.22;;;-142.13;68.78
11712;BME280;5912;51.034;6.984;2023-05-21T05:03:50;56328.28;;;-142.13;68.47
11712;BME280;5912;51.034;6.984;2023-05-21T05:06:16;56314.25;;;-142.13;68.28
11712;BME280;5912;51.034;6.984;2023-05-21T05:08:41;56306.25;;;-142.13;67.95
11712;BME280;5912;51.034;6.984;2023-05-21T05:11:07;56282.22;;;-142.13;67.72
11712;BME280;5912;51.034;6.984;2023-05-21T05:13:33;56276.19;;;-142.13;67.60
11712;BME280;5912;51.034;6.984;2023-05-21T05:15:58;56340.31;;;-142.13;67.46
11712;BME280;5912;51.034;6.984;2023-05-21T05:18:24;56300.25;;;-142.13;67.21
11712;BME280;5912;51.034;6.984;2023-05-21T05:20:49;56302.25;;;-142.13;66.97
11712;BME280;5912;51.034;6.984;2023-05-21T05:23:15;56300.25;;;-142.13;66.50
11712;BME280;5912;51.034;6.984;2023-05-21T05:25:40;56284.22;;;-142.13;66.14
11712;BME280;5912;51.034;6.984;2023-05-21T05:28:05;56260.19;;;-142.13;66.02
11712;BME280;5912;51.034;6.984;2023-05-21T05:30:31;56292.22;;;-142.13;65.91
11712;BME280;5912;51.034;6.984;2023-05-21T05:32:56;56278.19;;;-142.13;65.65
11712;BME280;5912;51.034;6.984;2023-05-21T05:35:22;56264.19;;;-142.13;65.14
11712;BME280;5912;51.034;6.984;2023-05-21T05:37:47;56290.22;;;-142.13;65.00
11712;BME280;5912;51.034;6.984;2023-05-21T05:40:12;56262.19;;;-142.13;64.75
11712;BME280;5912;51.034;6.984;2023-05-21T05:42:38;56242.16;;;-142.13;64.80
11712;BME280;5912;51.034;6.984;2023-05-21T05:45:04;56272.19;;;-142.13;64.25
11712;BME280;5912;51.034;6.984;2023-05-21T05:47:29;56252.16;;;-142.13;63.98
11712;BME280;5912;51.034;6.984;2023-05-21T05:49:55;56258.16;;;-142.13;63.55
11712;BME280;5912;51.034;6.984;2023-05-21T05:52:20;56268.19;;;-142.13;62.85
11712;BME280;5912;51.034;6.984;2023-05-21T05:54:46;56254.16;;;-142.13;62.71
11712;BME280;5912;51.034;6.984;2023-05-21T05:57:11;56250.16;;;-142.13;62.23
11712;BME280;5912;51.034;6.984;2023-05-21T05:59:36;56272.19;;;-142.13;62.23
11712;BME280;5912;51.034;6.984;2023-05-21T06:02:02;56216.09;;;-142.13;61.71
11712;BME280;5912;51.034;6.984;2023-05-21T06:04:27;56246.16;;;-142.13;61.48
11712;BME280;5912;51.034;6.984;2023-05-21T06:06:57;56258.16;;;-142.13;60.82
11712;BME280;5912;51.034;6.984;2023-05-21T06:09:24;56230.13;;;-142.13;60.16
11712;BME280;5912;51.034;6.984;2023-05-21T06:11:49;56214.09;;;-142.13;59.62
11712;BME280;5912;51.034;6.984;2023-05-21T06:14:15;56224.13;;;-142.13;59.44
11712;BME280;5912;51.034;6.984;2023-05-21T06:16:40;56240.16;;;-142.13;58.62
11712;BME280;5912;51.034;6.984;2023-05-21T06:19:05;56196.06;;;-142.13;58.27
11712;BME280;5912;51.034;6.984;2023-05-21T06:21:31;56180.06;;;-142.13;58.06
11712;BME280;5912;51.034;6.984;2023-05-21T06:23:56;56204.09;;;-142.13;57.61
11712;BME280;5912;51.034;6.984;2023-05-21T06:26:21;56248.16;;;-142.13;56.71
11712;BME280;5912;51.034;6.984;2023-05-21T06:28:48;56198.06;;;-142.13;56.56
11712;BME280;5912;51.034;6.984;2023-05-21T06:31:13;56198.06;;;-142.13;56.26
11712;BME280;5912;51.034;6.984;2023-05-21T06:33:39;56208.09;;;-142.13;55.64
11712;BME280;5912;51.034;6.984;2023-05-21T06:36:04;56204.09;;;-142.13;55.43
11712;BME280;5912;51.034;6.984;2023-05-21T06:38:30;56172.03;;;-142.13;55.18
11712;BME280;5912;51.034;6.984;2023-05-21T06:40:55;56176.03;;;-142.13;55.15
11712;BME280;5912;51.034;6.984;2023-05-21T06:43:22;56210.09;;;-142.13;55.28
11712;BME280;5912;51.034;6.984;2023-05-21T06:45:48;56194.06;;;-142.13;54.12
11712;BME280;5912;51.034;6.984;2023-05-21T06:48:13;56176.03;;;-142.13;52.60
11712;BME280;5912;51.034;6.984;2023-05-21T06:50:41;56154.00;;;-142.13;50.72
11712;BME280;5912;51.034;6.984;2023-05-21T06:53:06;56142.00;;;-142.13;48.93
11712;BME280;5912;51.034;6.984;2023-05-21T06:55:32;56121.97;;;-142.13;48.41
11712;BME280;5912;51.034;6.984;2023-05-21T06:57:57;56119.97;;;-142.13;47.35
11712;BME280;5912;51.034;6.984;2023-05-21T07:00:23;56073.88;;;-142.13;46.53
11712;BME280;5912;51.034;6.984;2023-05-21T07:02:48;56081.91;;;-142.13;45.09
11712;BME280;5912;51.034;6.984;2023-05-21T07:05:13;56055.84;;;-142.13;43.77
11712;BME280;5912;51.034;6.984;2023-05-21T07:07:38;56009.78;;;-142.13;42.00
11712;BME280;5912;51.034;6.984;2023-05-21T07:10:05;55993.75;;;-142.13;40.75
11712;BME280;5912;51.034;6.984;2023-05-21T07:12:30;55971.72;;;-142.13;38.69
11712;BME280;5912;51.034;6.984;2023-05-21T07:14:55;55949.69;;;-142.13;38.14
11712;BME280;5912;51.034;6.984;2023-05-21T07:17:21;55955.72;;;-142.13;37.93
11712;BME280;5912;51.034;6.984;2023-05-21T07:19:46;55959.72;;;-142.13;37.66
11712;BME280;5912;51.034;6.984;2023-05-21T07:22:11;55951.69;;;-142.13;36.78
11712;BME280;5912;51.034;6.984;2023-05-21T07:24:37;55931.66;;;-142.13;36.83
11712;BME280;5912;51.034;6.984;2023-05-21T07:27:02;55923.66;;;-142.13;36.37
11712;BME280;5912;51.034;6.984;2023-05-21T07:29:28;55939.69;;;-142.13;36.44
11712;BME280;5912;51.034;6.984;2023-05-21T07:31:53;55905.63;;;-142.13;36.21
11712;BME280;5912;51.034;6.984;2023-05-21T07:34:18;55903.63;;;-142.13;35.30
11712;BME280;5912;51.034;6.984;2023-05-21T07:36:44;55935.69;;;-142.13;35.19
11712;BME280;5912;51.034;6.984;2023-05-21T07:39:09;55899.63;;;-142.13;34.88
11712;BME280;5912;51.034;6.984;2023-05-21T07:41:34;55903.63;;;-142.13;35.17
11712;BME280;5912;51.034;6.984;2023-05-21T07:44:00;55887.59;;;-142.13;35.58
11712;BME280;5912;51.034;6.984;2023-05-21T07:46:25;55883.59;;;-142.13;35.05
11712;BME280;5912;51.034;6.984;2023-05-21T07:48:51;55907.63;;;-142.13;35.20
11712;BME280;5912;51.034;6.984;2023-05-21T07:51:16;55907.63;;;-142.13;35.85
11712;BME280;5912;51.034;6.984;2023-05-21T07:56:16;55923.66;;;-142.13;36.22
11712;BME280;5912;51.034;6.984;2023-05-21T07:58:41;55921.66;;;-142.13;36.13
11712;BME280;5912;51.034;6.984;2023-05-21T08:01:10;55907.63;;;-142.13;36.34
11712;BME280;5912;51.034;6.984;2023-05-21T08:03:35;55915.66;;;-142.13;35.95
11712;BME280;5912;51.034;6.984;2023-05-21T08:06:00;55899.63;;;-142.13;35.67
11712;BME280;5912;51.034;6.984;2023-05-21T08:08:26;55895.63;;;-142.13;34.67
11712;BME280;5912;51.034;6.984;2023-05-21T08:10:51;55895.63;;;-142.13;34.16
11712;BME280;5912;51.034;6.984;2023-05-21T08:13:17;55891.63;;;-142.13;34.25
11712;BME280;5912;51.034;6.984;2023-05-21T08:15:42;56061.88;;;-142.13;33.99
11712;BME280;5912;51.034;6.984;2023-05-21T08:18:08;55883.59;;;-142.13;33.71
11712;BME280;5912;51.034;6.984;2023-05-21T08:20:34;55835.53;;;-142.13;33.22
11712;BME280;5912;51.034;6.984;2023-05-21T08:23:00;55855.56;;;-142.13;32.64
11712;BME280;5912;51.034;6.984;2023-05-21T08:25:28;55841.53;;;-142.13;33.46
11712;BME280;5912;51.034;6.984;2023-05-21T08:27:54;55849.56;;;-142.13;33.45
11712;BME280;5912;51.034;6.984;2023-05-21T08:30:21;55835.53;;;-142.13;32.21
11712;BME280;5912;51.034;6.984;2023-05-21T08:32:47;55795.47;;;-142.13;32.02
11712;BME280;5912;51.034;6.984;2023-05-21T08:35:12;55771.44;;;-142.13;31.66
11712;BME280;5912;51.034;6.984;2023-05-21T08:37:38;55743.41;;;-142.13;31.05
11712;BME280;5912;51.034;6.984;2023-05-21T08:40:04;55743.41;;;-142.13;30.75
11712;BME280;5912;51.034;6.984;2023-05-21T08:42:39;55761.41;;;-142.13;30.75
11712;BME280;5912;51.034;6.984;2023-05-21T08:45:07;55759.41;;;-142.13;30.69
11712;BME280;5912;51.034;6.984;2023-05-21T08:47:34;55725.38;;;-142.13;30.33
11712;BME280;5912;51.034;6.984;2023-05-21T08:50:02;55725.38;;;-142.13;29.95
11712;BME280;5912;51.034;6.984;2023-05-21T08:52:30;55695.31;;;-142.13;29.02
11712;BME280;5912;51.034;6.984;2023-05-21T08:54:55;55691.31;;;-142.13;28.46
11712;BME280;5912;51.034;6.984;2023-05-21T08:57:21;55659.28;;;-142.13;28.29
11712;BME280;5912;51.034;6.984;2023-05-21T08:59:49;55689.31;;;-142.13;28.22
11712;BME280;5912;51.034;6.984;2023-05-21T09:02:15;55675.31;;;-142.13;28.74
11712;BME280;5912;51.034;6.984;2023-05-21T09:04:44;55729.38;;;-142.13;29.21
11712;BME280;5912;51.034;6.984;2023-05-21T09:07:14;55733.38;;;-142.13;29.29
11712;BME280;5912;51.034;6.984;2023-05-21T09:09:56;55733.38;;;-142.13;30.17
11712;BME280;5912;51.034;6.984;2023-05-21T09:12:23;55755.41;;;-142.13;30.47
11712;BME280;5912;51.034;6.984;2023-05-21T09:14:49;55745.41;;;-142.13;30.42
11712;BME280;5912;51.034;6.984;2023-05-21T09:17:15;55763.44;;;-142.13;30.29
11712;BME280;5912;51.034;6.984;2023-05-21T09:20:12;55759.41;;;-142.13;30.16
11712;BME280;5912;51.034;6.984;2023-05-21T09:22:51;55761.41;;;-142.13;30.37
11712;BME280;5912;51.034;6.984;2023-05-21T09:25:24;55759.41;;;-142.13;30.74
11712;BME280;5912;51.034;6.984;2023-05-21T09:27:54;55827.53;;;-142.13;31.03
11712;BME280;5912;51.034;6.984;2023-05-21T09:30:20;55795.47;;;-142.13;31.31
11712;BME280;5912;51.034;6.984;2023-05-21T09:32:51;55775.44;;;-142.13;31.46
11712;BME280;5912;51.034;6.984;2023-05-21T09:35:18;55791.47;;;-142.13;31.14
11712;BME280;5912;51.034;6.984;2023-05-21T09:37:46;55817.50;;;-142.13;31.41
11712;BME280;5912;51.034;6.984;2023-05-21T09:40:13;55763.44;;;-142.13;30.97
11712;BME280;5912;51.034;6.984;2023-05-21T09:42:53;55763.44;;;-142.13;30.96
11712;BME280;5912;51.034;6.984;2023-05-21T09:45:24;55743.41;;;-142.13;30.19
11712;BME280;5912;51.034;6.984;2023-05-21T09:47:51;55763.44;;;-142.13;30.85
11712;BME280;5912;51.034;6.984;2023-05-21T09:50:25;55743.41;;;-142.13;30.65
11712;BME280;5912;51.034;6.984;2023-05-21T09:52:54;55843.53;;;-142.13;30.49
11712;BME280;5912;51.034;6.984;2023-05-21T09:55:24;55699.34;;;-142.13;29.39
11712;BME280;5912;51.034;6.984;2023-05-21T09:57:50;55675.31;;;-142.13;29.17
11712;BME280;5912;51.034;6.984;2023-05-21T10:00:26;55715.34;;;-142.13;29.07
11712;BME280;5912;51.034;6.984;2023-05-21T10:02:56;55697.34;;;-142.13;29.14
11712;BME280;5912;51.034;6.984;2023-05-21T10:05:25;55681.31;;;-142.13;29.25
11712;BME280;5912;51.034;6.984;2023-05-21T10:07:56;55667.28;;;-142.13;28.77
11712;BME280;5912;51.034;6.984;2023-05-21T10:10:23;55681.31;;;-142.13;28.07
11712;BME280;5912;51.034;6.984;2023-05-21T10:12:54;55675.31;;;-142.13;28.42
11712;BME280;5912;51.034;6.984;2023-05-21T10:15:23;55693.31;;;-142.13;28.33
11712;BME280;5912;51.034;6.984;2023-05-21T10:17:51;55695.31;;;-142.13;29.09
11712;BME280;5912;51.034;6.984;2023-05-21T10:20:16;55723.38;;;-142.13;29.03
11712;BME280;5912;51.034;6.984;2023-05-21T10:22:43;55665.28;;;-142.13;29.02
11712;BME280;5912;51.034;6.984;2023-05-21T10:25:08;55711.34;;;-142.13;29.22
11712;BME280;5912;51.034;6.984;2023-05-21T10:27:35;55681.31;;;-142.13;29.50
11712;BME280;5912;51.034;6.984;2023-05-21T10:30:03;55697.34;;;-142.13;29.15
11712;BME280;5912;51.034;6.984;2023-05-21T10:32:30;55713.34;;;-142.13;29.33
11712;BME280;5912;51.034;6.984;2023-05-21T10:34:56;55689.31;;;-142.13;29.20
11712;BME280;5912;51.034;6.984;2023-05-21T10:37:23;55691.31;;;-142.13;29.66
11712;BME280;5912;51.034;6.984;2023-05-21T10:39:51;55661.28;;;-142.13;29.31
11712;BME280;5912;51.034;6.984;2023-05-21T10:53:01;55705.34;;;-142.13;29.58
11712;BME280;5912;51.034;6.984;2023-05-21T10:59:14;55705.34;;;-142.13;29.39
11712;BME280;5912;51.034;6.984;2023-05-21T11:01:48;55691.31;;;-142.13;29.86
11712;BME280;5912;51.034;6.984;2023-05-21T11:04:14;55729.38;;;-142.13;29.56
11712;BME280;5912;51.034;6.984;2023-05-21T11:06:46;55755.41;;;-142.13;30.05
11712;BME280;5912;51.034;6.984;2023-05-21T11:09:13;55755.41;;;-142.13;30.40
11712;BME280;5912;51.034;6.984;2023-05-21T11:11:46;55739.38;;;-142.13;30.43
11712;BME280;5912;51.034;6.984;2023-05-21T11:16:51;55691.31;;;-142.13;29.51
11712;BME280;5912;51.034;6.984;2023-05-21T11:19:17;55713.34;;;-142.13;28.60
11712;BME280;5912;51.034;6.984;2023-05-21T11:21:42;55691.31;;;-142.13;29.16
11712;BME280;5912;51.034;6.984;2023-05-21T11:24:18;55675.31;;;-142.13;28.93
11712;BME280;5912;51.034;6.984;2023-05-21T11:29:12;55699.34;;;-142.13;28.90
11712;BME280;5912;51.034;6.984;2023-05-21T11:31:41;55689.31;;;-142.13;28.78
11712;BME280;5912;51.034;6.984;2023-05-21T11:34:20;55683.31;;;-142.13;28.22
11712;BME280;5912;51.034;6.984;2023-05-21T11:39:41;55681.31;;;-142.13;28.77
11712;BME280;5912;51.034;6.984;2023-05-21T11:42:06;55663.28;;;-142.13;28.15
11712;BME280;5912;51.034;6.984;2023-05-21T11:47:08;55671.28;;;-142.13;28.34
11712;BME280;5912;51.034;6.984;2023-05-21T11:49:34;55671.28;;;-142.13;27.97
11712;BME280;5912;51.034;6.984;2023-05-21T11:51:59;55659.28;;;-142.13;27.99
11712;BME280;5912;51.034;6.984;2023-05-21T11:54:26;55663.28;;;-142.13;27.73
11712;BME280;5912;51.034;6.984;2023-05-21T11:56:53;55671.28;;;-142.13;27.70
11712;BME280;5912;51.034;6.984;2023-05-21T11:59:18;55661.28;;;-142.13;27.92
11712;BME280;5912;51.034;6.984;2023-05-21T12:01:44;55629.22;;;-142.13;27.32
11712;BME280;5912;51.034;6.984;2023-05-21T12:04:09;55803.47;;;-142.13;27.64
11712;BME280;5912;51.034;6.984;2023-05-21T12:06:38;55603.19;;;-142.13;27.09
11712;BME280;5912;51.034;6.984;2023-05-21T12:09:10;55599.19;;;-142.13;27.37
11712;BME280;5912;51.034;6.984;2023-05-21T12:11:37;55627.22;;;-142.13;27.23
11712;BME280;5912;51.034;6.984;2023-05-21T12:14:06;55595.19;;;-142.13;26.96
11712;BME280;5912;51.034;6.984;2023-05-21T12:16:32;55617.22;;;-142.13;27.10
11712;BME280;5912;51.034;6.984;2023-05-21T12:18:58;55615.22;;;-142.13;27.15
11712;BME280;5912;51.034;6.984;2023-05-21T12:21:26;55623.22;;;-142.13;26.98
11712;BME280;5912;51.034;6.984;2023-05-21T12:23:52;55613.22;;;-142.13;26.80
11712;BME280;5912;51.034;6.984;2023-05-21T12:26:18;55603.19;;;-142.13;26.40
11712;BME280;5912;51.034;6.984;2023-05-21T12:28:43;55603.19;;;-142.13;26.66
11712;BME280;5912;51.034;6.984;2023-05-21T12:31:14;55603.19;;;-142.13;26.90
11712;BME280;5912;51.034;6.984;2023-05-21T12:33:43;55591.19;;;-142.13;26.97
11712;BME280;5912;51.034;6.984;2023-05-21T12:36:09;55601.19;;;-142.13;26.77
11712;BME280;5912;51.034;6.984;2023-05-21T12:38:35;55625.22;;;-142.13;27.47
11712;BME280;5912;51.034;6.984;2023-05-21T12:41:04;55619.22;;;-142.13;27.50
11712;BME280;5912;51.034;6.984;2023-05-21T12:43:31;55665.28;;;-142.13;27.95
11712;BME280;5912;51.034;6.984;2023-05-21T12:45:57;55673.28;;;-142.13;28.76
11712;BME280;5912;51.034;6.984;2023-05-21T12:48:22;55679.31;;;-142.13;28.78
11712;BME280;5912;51.034;6.984;2023-05-21T12:50:47;55649.25;;;-142.13;28.74
11712;BME280;5912;51.034;6.984;2023-05-21T12:53:13;55679.31;;;-142.13;28.90
11712;BME280;5912;51.034;6.984;2023-05-21T12:55:38;55675.31;;;-142.13;29.31
11712;BME280;5912;51.034;6.984;2023-05-21T12:58:04;55707.34;;;-142.13;29.48
11712;BME280;5912;51.034;6.984;2023-05-21T13:00:33;55699.34;;;-142.13;30.01
11712;BME280;5912;51.034;6.984;2023-05-21T13:02:58;55709.34;;;-142.13;29.58
11712;BME280;5912;51.034;6.984;2023-05-21T13:05:25;55683.31;;;-142.13;29.88
11712;BME280;5912;51.034;6.984;2023-05-21T13:07:51;55709.34;;;-142.13;30.03
11712;BME280;5912;51.034;6.984;2023-05-21T13:10:16;55715.34;;;-142.13;29.81
11712;BME280;5912;51.034;6.984;2023-05-21T13:12:42;55661.28;;;-142.13;29.58
11712;BME280;5912;51.034;6.984;2023-05-21T13:15:07;55689.31;;;-142.13;28.99
11712;BME280;5912;51.034;6.984;2023-05-21T13:17:33;55673.28;;;-142.13;29.17